Atascadero, CA

5:07 AM PST on December 21, 2014 (GMT -0800)
Morro Road | Change Station
CLOSE
Current Station
Personal Weather Station
Location: Atascadero, CA
Elevation: 1400 ft
Nearby Weather Stations

Elev 1400 ft 35.45 °N, 120.71 °W | Updated 25 seconds ago

Fog
Fog
48.7 °F
Feels Like 49 °F
N
0.0
Wind Variable Wind from WNW
Gusts 0.0 mph

Today
High -- | Low -- °F
--% Chance of Precip.
Yesterday
High -- | Low -- °F
Precip. -- in
7:08 AM 4:53 PM
Waning Crescent, 0% visible
Pressure 30.27 in
Visibility 0.2 miles
Clouds
Windchill 49 °F
Dew Point 47 °F
Humidity 95%
Rainfall 0.00 in
Snow Depth Not available.
UV Not available.
Pollen 4.10 out of 12
Air Quality Not available.
Flu Activity Not available.
METAR KPRB 211253Z AUTO 00000KT 1/4SM FG VV002 10/09 A3027 RMK AO2 SLP248 T01000089 TSNO

More Conditions Fewer Conditions

Pressure 30.27 in
Visibility 0.2 miles
Clouds
Windchill 49 °F
Dew Point 47 °F
Humidity 95%
Rainfall 0.00 in
Snow Depth Not available.
UV Not available.
Pollen 4.10 out of 12
Air Quality Not available.
Flu Activity Not available.
METAR KPRB 211253Z AUTO 00000KT 1/4SM FG VV002 10/09 A3027 RMK AO2 SLP248 T01000089 TSNO

More Conditions Fewer Conditions

10-Day Weather Forecast

Almanac

Astronomy

Dec. 21, 2014 Rise Set
Actual Time
Civil Twilight
Nautical Twilight
Astronomical Twilight
Moon
Length of Visible Light
Length of Day
Tomorrow will be .
, % of the Moon is Illuminated

Today's Extremes

State Highs State Lows

Community

WunderPhotos

Upload Photos

1,779,373 photos uploaded!

WunderBlogs® & News

Nearby

Air Quality

  Air Quality AQ Index Pollutant
Not available.

Snow Depth

Station Depth Elevation

Earthquake Activity

City Distance Mag. Time & Date
Minimum magnitude displayed is 2.5.

Coastal Water Temperatures

Place Temperature

Nearby Weather Stations